Terminal Aerodrome Forecast
Issued by NWS

Home | Current Version | Previous Version | Text Only | Print | Product List | Glossary On
Versions: 1 2 3 4 5 6 7 8 9 10 11 12 13 14 15 16 17 18
000
FTUS43 KPAH 251139
TAFCGI
TAF
KCGI 251139Z 2512/2612 00000KT 4SM BR MIFG SKC
     FM251300 22005KT P6SM SCT035
     FM260000 20002KT P6SM FEW150 SCT250
     FM260800 00000KT 2SM BR FEW150 SCT250=

USA.gov is the U.S. government's official web portal to all federal, state and local government web resources and services.